sensor_id;sensor_type;location;lat;lon;timestamp;temperature;humidity
29363;DHT22;16349;53.672;10.014;2023-12-04T00:01:25;-1.00;99.90
29363;DHT22;16349;53.672;10.014;2023-12-04T00:03:54;-1.00;99.90
29363;DHT22;16349;53.672;10.014;2023-12-04T00:06:21;-1.00;99.90
29363;DHT22;16349;53.672;10.014;2023-12-04T00:08:48;-1.00;99.90
29363;DHT22;16349;53.672;10.014;2023-12-04T00:11:15;-1.00;99.90
29363;DHT22;16349;53.672;10.014;2023-12-04T00:13:41;-1.10;99.90
29363;DHT22;16349;53.672;10.014;2023-12-04T00:16:09;-1.10;99.90
29363;DHT22;16349;53.672;10.014;2023-12-04T00:18:36;-1.10;99.90
29363;DHT22;16349;53.672;10.014;2023-12-04T00:21:04;-1.10;99.90
29363;DHT22;16349;53.672;10.014;2023-12-04T00:23:31;-1.10;99.90
29363;DHT22;16349;53.672;10.014;2023-12-04T00:25:58;-1.20;99.90
29363;DHT22;16349;53.672;10.014;2023-12-04T00:28:25;-1.20;99.90
29363;DHT22;16349;53.672;10.014;2023-12-04T00:30:54;-1.20;99.90
29363;DHT22;16349;53.672;10.014;2023-12-04T00:33:21;-1.20;99.90
29363;DHT22;16349;53.672;10.014;2023-12-04T00:35:47;-1.20;99.90
29363;DHT22;16349;53.672;10.014;2023-12-04T00:38:16;-1.20;99.90
29363;DHT22;16349;53.672;10.014;2023-12-04T00:40:42;-1.20;99.90
29363;DHT22;16349;53.672;10.014;2023-12-04T00:43:09;-1.20;99.90
29363;DHT22;16349;53.672;10.014;2023-12-04T00:45:36;-1.20;99.90
29363;DHT22;16349;53.672;10.014;2023-12-04T00:48:04;-1.30;99.90
29363;DHT22;16349;53.672;10.014;2023-12-04T00:50:31;-1.30;99.90
29363;DHT22;16349;53.672;10.014;2023-12-04T00:52:57;-1.30;99.90
29363;DHT22;16349;53.672;10.014;2023-12-04T00:55:25;-1.30;99.90
29363;DHT22;16349;53.672;10.014;2023-12-04T00:57:52;-1.30;99.90
29363;DHT22;16349;53.672;10.014;2023-12-04T01:00:19;-1.30;99.90
29363;DHT22;16349;53.672;10.014;2023-12-04T01:02:46;-1.30;99.90
29363;DHT22;16349;53.672;10.014;2023-12-04T01:05:13;-1.30;99.90
29363;DHT22;16349;53.672;10.014;2023-12-04T01:07:40;-1.30;99.90
29363;DHT22;16349;53.672;10.014;2023-12-04T01:10:07;-1.30;99.90
29363;DHT22;16349;53.672;10.014;2023-12-04T01:12:36;-1.40;99.90
29363;DHT22;16349;53.672;10.014;2023-12-04T01:15:03;-1.40;99.90
29363;DHT22;16349;53.672;10.014;2023-12-04T01:17:30;-1.40;99.90
29363;DHT22;16349;53.672;10.014;2023-12-04T01:19:57;-1.40;99.90
29363;DHT22;16349;53.672;10.014;2023-12-04T01:22:24;-1.50;99.90
29363;DHT22;16349;53.672;10.014;2023-12-04T01:24:50;-1.50;99.90
29363;DHT22;16349;53.672;10.014;2023-12-04T01:27:17;-1.50;99.90
29363;DHT22;16349;53.672;10.014;2023-12-04T01:29:45;-1.50;99.90
29363;DHT22;16349;53.672;10.014;2023-12-04T01:32:12;-1.50;99.90
29363;DHT22;16349;53.672;10.014;2023-12-04T01:34:39;-1.50;99.90
29363;DHT22;16349;53.672;10.014;2023-12-04T01:37:06;-1.50;99.90
29363;DHT22;16349;53.672;10.014;2023-12-04T01:39:33;-1.60;99.90
29363;DHT22;16349;53.672;10.014;2023-12-04T01:41:59;-1.60;99.90
29363;DHT22;16349;53.672;10.014;2023-12-04T01:44:26;-1.60;99.90
29363;DHT22;16349;53.672;10.014;2023-12-04T01:46:55;-1.60;99.90
29363;DHT22;16349;53.672;10.014;2023-12-04T01:49:23;-1.60;99.90
29363;DHT22;16349;53.672;10.014;2023-12-04T01:51:50;-1.60;99.90
29363;DHT22;16349;53.672;10.014;2023-12-04T01:54:17;-1.60;99.90
29363;DHT22;16349;53.672;10.014;2023-12-04T01:56:44;-1.60;99.90
29363;DHT22;16349;53.672;10.014;2023-12-04T01:59:11;-1.60;99.90
29363;DHT22;16349;53.672;10.014;2023-12-04T02:01:39;-1.70;99.90
29363;DHT22;16349;53.672;10.014;2023-12-04T02:04:08;-1.70;99.90
29363;DHT22;16349;53.672;10.014;2023-12-04T02:06:35;-1.60;99.90
29363;DHT22;16349;53.672;10.014;2023-12-04T02:09:02;-1.70;99.90
29363;DHT22;16349;53.672;10.014;2023-12-04T02:11:29;-1.70;99.90
29363;DHT22;16349;53.672;10.014;2023-12-04T02:13:55;-1.70;99.90
29363;DHT22;16349;53.672;10.014;2023-12-04T02:16:23;-1.70;99.90
29363;DHT22;16349;53.672;10.014;2023-12-04T02:18:51;-1.80;99.90
29363;DHT22;16349;53.672;10.014;2023-12-04T02:21:19;-1.80;99.90
29363;DHT22;16349;53.672;10.014;2023-12-04T02:23:49;-1.80;99.90
29363;DHT22;16349;53.672;10.014;2023-12-04T02:26:17;-1.80;99.90
29363;DHT22;16349;53.672;10.014;2023-12-04T02:28:50;-1.80;99.90
29363;DHT22;16349;53.672;10.014;2023-12-04T02:31:21;-1.80;99.90
29363;DHT22;16349;53.672;10.014;2023-12-04T02:33:52;-1.80;99.90
29363;DHT22;16349;53.672;10.014;2023-12-04T02:36:19;-1.80;99.90
29363;DHT22;16349;53.672;10.014;2023-12-04T02:38:48;-1.80;99.90
29363;DHT22;16349;53.672;10.014;2023-12-04T02:41:15;-1.80;99.90
29363;DHT22;16349;53.672;10.014;2023-12-04T02:43:43;-1.90;99.90
29363;DHT22;16349;53.672;10.014;2023-12-04T02:46:10;-1.90;99.90
29363;DHT22;16349;53.672;10.014;2023-12-04T02:48:36;-1.90;99.90
29363;DHT22;16349;53.672;10.014;2023-12-04T02:51:04;-1.90;99.90
29363;DHT22;16349;53.672;10.014;2023-12-04T02:53:31;-1.90;99.90
29363;DHT22;16349;53.672;10.014;2023-12-04T02:55:59;-1.90;99.90
29363;DHT22;16349;53.672;10.014;2023-12-04T02:58:26;-1.90;99.90
29363;DHT22;16349;53.672;10.014;2023-12-04T03:00:53;-1.90;99.90
29363;DHT22;16349;53.672;10.014;2023-12-04T03:03:19;-1.90;99.90
29363;DHT22;16349;53.672;10.014;2023-12-04T03:05:46;-1.90;99.90
29363;DHT22;16349;53.672;10.014;2023-12-04T03:08:13;-1.90;99.90
29363;DHT22;16349;53.672;10.014;2023-12-04T03:10:41;-1.90;99.90
29363;DHT22;16349;53.672;10.014;2023-12-04T03:13:09;-1.90;99.90
29363;DHT22;16349;53.672;10.014;2023-12-04T03:15:36;-1.90;99.90
29363;DHT22;16349;53.672;10.014;2023-12-04T03:18:03;-1.90;99.90
29363;DHT22;16349;53.672;10.014;2023-12-04T03:20:32;-1.90;99.90
29363;DHT22;16349;53.672;10.014;2023-12-04T03:22:58;-1.90;99.90
29363;DHT22;16349;53.672;10.014;2023-12-04T03:25:25;-1.90;99.90
29363;DHT22;16349;53.672;10.014;2023-12-04T03:27:52;-1.90;99.90
29363;DHT22;16349;53.672;10.014;2023-12-04T03:30:20;-1.90;99.90
29363;DHT22;16349;53.672;10.014;2023-12-04T03:32:47;-1.90;99.90
29363;DHT22;16349;53.672;10.014;2023-12-04T03:35:14;-1.80;99.90
29363;DHT22;16349;53.672;10.014;2023-12-04T03:37:40;-1.80;99.90
29363;DHT22;16349;53.672;10.014;2023-12-04T03:40:08;-1.80;99.90
29363;DHT22;16349;53.672;10.014;2023-12-04T03:42:35;-1.80;99.90
29363;DHT22;16349;53.672;10.014;2023-12-04T03:45:01;-1.80;99.90
29363;DHT22;16349;53.672;10.014;2023-12-04T03:47:30;-1.80;99.90
29363;DHT22;16349;53.672;10.014;2023-12-04T03:49:56;-1.80;99.90
29363;DHT22;16349;53.672;10.014;2023-12-04T03:52:23;-1.80;99.90
29363;DHT22;16349;53.672;10.014;2023-12-04T03:54:50;-1.80;99.90
29363;DHT22;16349;53.672;10.014;2023-12-04T03:57:17;-1.80;99.90
29363;DHT22;16349;53.672;10.014;2023-12-04T03:59:43;-1.80;99.90
29363;DHT22;16349;53.672;10.014;2023-12-04T04:02:10;-1.80;99.90
29363;DHT22;16349;53.672;10.014;2023-12-04T04:04:38;-1.80;99.90
29363;DHT22;16349;53.672;10.014;2023-12-04T04:07:05;-1.80;99.90
29363;DHT22;16349;53.672;10.014;2023-12-04T04:09:32;-1.80;99.90
29363;DHT22;16349;53.672;10.014;2023-12-04T04:11:59;-1.80;99.90
29363;DHT22;16349;53.672;10.014;2023-12-04T04:14:26;-1.80;99.90
29363;DHT22;16349;53.672;10.014;2023-12-04T04:16:53;-1.80;99.90
29363;DHT22;16349;53.672;10.014;2023-12-04T04:19:19;-1.80;99.90
29363;DHT22;16349;53.672;10.014;2023-12-04T04:21:47;-1.80;99.90
29363;DHT22;16349;53.672;10.014;2023-12-04T04:24:14;-1.90;99.90
29363;DHT22;16349;53.672;10.014;2023-12-04T04:26:41;-1.90;99.90
29363;DHT22;16349;53.672;10.014;2023-12-04T04:29:08;-1.90;99.90
29363;DHT22;16349;53.672;10.014;2023-12-04T04:31:35;-1.80;99.90
29363;DHT22;16349;53.672;10.014;2023-12-04T04:34:02;-1.80;99.90
29363;DHT22;16349;53.672;10.014;2023-12-04T04:36:29;-1.80;99.90
29363;DHT22;16349;53.672;10.014;2023-12-04T04:38:57;-1.80;99.90
29363;DHT22;16349;53.672;10.014;2023-12-04T04:41:23;-1.80;99.90
29363;DHT22;16349;53.672;10.014;2023-12-04T04:43:50;-1.70;99.90
29363;DHT22;16349;53.672;10.014;2023-12-04T04:46:18;-1.70;99.90
29363;DHT22;16349;53.672;10.014;2023-12-04T04:48:44;-1.70;99.90
29363;DHT22;16349;53.672;10.014;2023-12-04T04:51:11;-1.60;99.90
29363;DHT22;16349;53.672;10.014;2023-12-04T04:53:38;-1.60;99.90
29363;DHT22;16349;53.672;10.014;2023-12-04T04:56:08;-1.60;99.90
29363;DHT22;16349;53.672;10.014;2023-12-04T04:58:36;-1.60;99.90
29363;DHT22;16349;53.672;10.014;2023-12-04T05:01:04;-1.60;99.90
29363;DHT22;16349;53.672;10.014;2023-12-04T05:03:31;-1.50;99.90
29363;DHT22;16349;53.672;10.014;2023-12-04T05:05:58;-1.50;99.90
29363;DHT22;16349;53.672;10.014;2023-12-04T05:08:24;-1.50;99.90
29363;DHT22;16349;53.672;10.014;2023-12-04T05:10:51;-1.60;99.90
29363;DHT22;16349;53.672;10.014;2023-12-04T05:13:19;-1.60;99.90
29363;DHT22;16349;53.672;10.014;2023-12-04T05:15:46;-1.60;99.90
29363;DHT22;16349;53.672;10.014;2023-12-04T05:18:13;-1.50;99.90
29363;DHT22;16349;53.672;10.014;2023-12-04T05:20:41;-1.50;99.90
29363;DHT22;16349;53.672;10.014;2023-12-04T05:23:08;-1.50;99.90
29363;DHT22;16349;53.672;10.014;2023-12-04T05:25:34;-1.50;99.90
29363;DHT22;16349;53.672;10.014;2023-12-04T05:28:01;-1.50;99.90
29363;DHT22;16349;53.672;10.014;2023-12-04T05:30:29;-1.40;99.90
29363;DHT22;16349;53.672;10.014;2023-12-04T05:32:56;-1.40;99.90
29363;DHT22;16349;53.672;10.014;2023-12-04T05:35:23;-1.40;99.90
29363;DHT22;16349;53.672;10.014;2023-12-04T05:37:50;-1.30;99.90
29363;DHT22;16349;53.672;10.014;2023-12-04T05:40:16;-1.30;99.90
29363;DHT22;16349;53.672;10.014;2023-12-04T05:42:43;-1.30;99.90
29363;DHT22;16349;53.672;10.014;2023-12-04T05:45:10;-1.30;99.90
29363;DHT22;16349;53.672;10.014;2023-12-04T05:47:39;-1.30;99.90
29363;DHT22;16349;53.672;10.014;2023-12-04T05:50:06;-1.20;99.90
29363;DHT22;16349;53.672;10.014;2023-12-04T05:52:33;-1.20;99.90
29363;DHT22;16349;53.672;10.014;2023-12-04T05:55:00;-1.20;99.90
29363;DHT22;16349;53.672;10.014;2023-12-04T05:57:27;-1.20;99.90
29363;DHT22;16349;53.672;10.014;2023-12-04T05:59:54;-1.10;99.90
29363;DHT22;16349;53.672;10.014;2023-12-04T06:02:22;-1.10;99.90
29363;DHT22;16349;53.672;10.014;2023-12-04T06:04:50;-1.10;99.90
29363;DHT22;16349;53.672;10.014;2023-12-04T06:07:17;-1.10;99.90
29363;DHT22;16349;53.672;10.014;2023-12-04T06:09:43;-1.10;99.90
29363;DHT22;16349;53.672;10.014;2023-12-04T06:12:10;-1.10;99.90
29363;DHT22;16349;53.672;10.014;2023-12-04T06:14:37;-1.00;99.90
29363;DHT22;16349;53.672;10.014;2023-12-04T06:17:04;-1.00;99.90
29363;DHT22;16349;53.672;10.014;2023-12-04T06:19:32;-1.00;99.90
29363;DHT22;16349;53.672;10.014;2023-12-04T06:22:00;-1.00;99.90
29363;DHT22;16349;53.672;10.014;2023-12-04T06:24:27;-1.10;99.90
29363;DHT22;16349;53.672;10.014;2023-12-04T06:26:55;-1.10;99.90
29363;DHT22;16349;53.672;10.014;2023-12-04T06:29:23;-1.10;99.90
29363;DHT22;16349;53.672;10.014;2023-12-04T06:31:51;-1.10;99.90
29363;DHT22;16349;53.672;10.014;2023-12-04T06:34:18;-1.10;99.90
29363;DHT22;16349;53.672;10.014;2023-12-04T06:36:45;-1.10;99.90
29363;DHT22;16349;53.672;10.014;2023-12-04T06:39:15;-1.10;99.90
29363;DHT22;16349;53.672;10.014;2023-12-04T06:41:43;-1.20;99.90
29363;DHT22;16349;53.672;10.014;2023-12-04T06:44:12;-1.20;99.90
29363;DHT22;16349;53.672;10.014;2023-12-04T06:46:41;-1.20;99.90
29363;DHT22;16349;53.672;10.014;2023-12-04T06:49:10;-1.30;99.90
29363;DHT22;16349;53.672;10.014;2023-12-04T06:51:38;-1.30;99.90
29363;DHT22;16349;53.672;10.014;2023-12-04T06:54:05;-1.30;99.90
29363;DHT22;16349;53.672;10.014;2023-12-04T06:56:33;-1.30;99.90
29363;DHT22;16349;53.672;10.014;2023-12-04T06:59:00;-1.30;99.90
29363;DHT22;16349;53.672;10.014;2023-12-04T07:01:27;-1.30;99.90
29363;DHT22;16349;53.672;10.014;2023-12-04T07:03:56;-1.30;99.90
29363;DHT22;16349;53.672;10.014;2023-12-04T07:06:23;-1.30;99.90
29363;DHT22;16349;53.672;10.014;2023-12-04T07:08:51;-1.30;99.90
29363;DHT22;16349;53.672;10.014;2023-12-04T07:11:18;-1.30;99.90
29363;DHT22;16349;53.672;10.014;2023-12-04T07:13:48;-1.30;99.90
29363;DHT22;16349;53.672;10.014;2023-12-04T07:16:17;-1.30;99.90
29363;DHT22;16349;53.672;10.014;2023-12-04T07:18:44;-1.30;99.90
29363;DHT22;16349;53.672;10.014;2023-12-04T07:21:12;-1.30;99.90
29363;DHT22;16349;53.672;10.014;2023-12-04T07:23:40;-1.30;99.90
29363;DHT22;16349;53.672;10.014;2023-12-04T07:26:08;-1.30;99.90
29363;DHT22;16349;53.672;10.014;2023-12-04T07:28:36;-1.30;99.90
29363;DHT22;16349;53.672;10.014;2023-12-04T07:31:06;-1.30;99.90
29363;DHT22;16349;53.672;10.014;2023-12-04T07:33:33;-1.30;99.90
29363;DHT22;16349;53.672;10.014;2023-12-04T07:36:00;-1.30;99.90
29363;DHT22;16349;53.672;10.014;2023-12-04T07:38:30;-1.30;99.90
29363;DHT22;16349;53.672;10.014;2023-12-04T07:40:57;-1.30;99.90
29363;DHT22;16349;53.672;10.014;2023-12-04T07:43:25;-1.30;99.90
29363;DHT22;16349;53.672;10.014;2023-12-04T07:45:55;-1.30;99.90
29363;DHT22;16349;53.672;10.014;2023-12-04T07:48:28;-1.30;99.90
29363;DHT22;16349;53.672;10.014;2023-12-04T07:50:55;-1.30;99.90
29363;DHT22;16349;53.672;10.014;2023-12-04T07:53:23;-1.30;99.90
29363;DHT22;16349;53.672;10.014;2023-12-04T07:55:51;-1.30;99.90
29363;DHT22;16349;53.672;10.014;2023-12-04T07:58:19;-1.30;99.90
29363;DHT22;16349;53.672;10.014;2023-12-04T08:00:48;-1.30;99.90
29363;DHT22;16349;53.672;10.014;2023-12-04T08:03:16;-1.30;99.90
29363;DHT22;16349;53.672;10.014;2023-12-04T08:05:47;-1.30;99.90
29363;DHT22;16349;53.672;10.014;2023-12-04T08:08:14;-1.30;99.90
29363;DHT22;16349;53.672;10.014;2023-12-04T08:10:42;-1.30;99.90
29363;DHT22;16349;53.672;10.014;2023-12-04T08:13:09;-1.30;99.90
29363;DHT22;16349;53.672;10.014;2023-12-04T08:15:38;-1.30;99.90
29363;DHT22;16349;53.672;10.014;2023-12-04T08:18:06;-1.20;99.90
29363;DHT22;16349;53.672;10.014;2023-12-04T08:20:34;-1.20;99.90
29363;DHT22;16349;53.672;10.014;2023-12-04T08:23:04;-1.20;99.90
29363;DHT22;16349;53.672;10.014;2023-12-04T08:25:34;-1.20;99.90
29363;DHT22;16349;53.672;10.014;2023-12-04T08:28:04;-1.20;99.90
29363;DHT22;16349;53.672;10.014;2023-12-04T08:30:31;-1.10;99.90
29363;DHT22;16349;53.672;10.014;2023-12-04T08:32:59;-1.10;99.90
29363;DHT22;16349;53.672;10.014;2023-12-04T08:35:27;-1.10;99.90
29363;DHT22;16349;53.672;10.014;2023-12-04T08:37:56;-1.10;99.90
29363;DHT22;16349;53.672;10.014;2023-12-04T08:40:25;-1.00;99.90
29363;DHT22;16349;53.672;10.014;2023-12-04T08:42:53;-1.00;99.90
29363;DHT22;16349;53.672;10.014;2023-12-04T08:45:20;-1.00;99.90
29363;DHT22;16349;53.672;10.014;2023-12-04T08:47:48;-1.00;99.90
29363;DHT22;16349;53.672;10.014;2023-12-04T08:50:16;-1.00;99.90
29363;DHT22;16349;53.672;10.014;2023-12-04T08:52:44;-0.90;99.90
29363;DHT22;16349;53.672;10.014;2023-12-04T08:55:12;-0.90;99.90
29363;DHT22;16349;53.672;10.014;2023-12-04T08:57:41;-0.90;99.90
29363;DHT22;16349;53.672;10.014;2023-12-04T09:00:10;-0.90;99.90
29363;DHT22;16349;53.672;10.014;2023-12-04T09:02:38;-0.90;99.90
29363;DHT22;16349;53.672;10.014;2023-12-04T09:05:06;-0.90;99.90
29363;DHT22;16349;53.672;10.014;2023-12-04T09:07:35;-0.80;99.90
29363;DHT22;16349;53.672;10.014;2023-12-04T09:10:05;-0.80;99.90
29363;DHT22;16349;53.672;10.014;2023-12-04T09:12:33;-0.80;99.90
29363;DHT22;16349;53.672;10.014;2023-12-04T09:15:05;-0.80;99.90
29363;DHT22;16349;53.672;10.014;2023-12-04T09:17:36;-0.80;99.90
29363;DHT22;16349;53.672;10.014;2023-12-04T09:20:03;-0.80;99.90
29363;DHT22;16349;53.672;10.014;2023-12-04T09:22:31;-0.80;99.90
29363;DHT22;16349;53.672;10.014;2023-12-04T09:25:00;-0.80;99.90
29363;DHT22;16349;53.672;10.014;2023-12-04T09:27:27;-0.80;99.90
29363;DHT22;16349;53.672;10.014;2023-12-04T09:29:54;-0.70;99.90
29363;DHT22;16349;53.672;10.014;2023-12-04T09:32:23;-0.70;99.90
29363;DHT22;16349;53.672;10.014;2023-12-04T09:34:50;-0.70;99.90
29363;DHT22;16349;53.672;10.014;2023-12-04T09:37:18;-0.70;99.90
29363;DHT22;16349;53.672;10.014;2023-12-04T09:39:46;-0.70;99.90
29363;DHT22;16349;53.672;10.014;2023-12-04T09:42:16;-0.60;99.90
29363;DHT22;16349;53.672;10.014;2023-12-04T09:44:46;-0.60;99.90
29363;DHT22;16349;53.672;10.014;2023-12-04T09:47:16;-0.60;99.90
29363;DHT22;16349;53.672;10.014;2023-12-04T09:49:45;-0.60;99.90
29363;DHT22;16349;53.672;10.014;2023-12-04T09:52:16;-0.60;99.90
29363;DHT22;16349;53.672;10.014;2023-12-04T09:54:45;-0.50;99.90
29363;DHT22;16349;53.672;10.014;2023-12-04T09:57:13;-0.50;99.90
29363;DHT22;16349;53.672;10.014;2023-12-04T09:59:42;-0.50;99.90
29363;DHT22;16349;53.672;10.014;2023-12-04T10:02:11;-0.50;99.90
29363;DHT22;16349;53.672;10.014;2023-12-04T10:04:38;-0.40;99.90
29363;DHT22;16349;53.672;10.014;2023-12-04T10:07:06;-0.40;99.90
29363;DHT22;16349;53.672;10.014;2023-12-04T10:09:34;-0.30;99.90
29363;DHT22;16349;53.672;10.014;2023-12-04T10:12:01;-0.30;99.90
29363;DHT22;16349;53.672;10.014;2023-12-04T10:14:29;-0.30;99.90
29363;DHT22;16349;53.672;10.014;2023-12-04T10:16:57;-0.20;99.90
29363;DHT22;16349;53.672;10.014;2023-12-04T10:19:27;-0.20;99.90
29363;DHT22;16349;53.672;10.014;2023-12-04T10:21:56;-0.20;99.90
29363;DHT22;16349;53.672;10.014;2023-12-04T10:24:36;-0.20;99.90
29363;DHT22;16349;53.672;10.014;2023-12-04T10:27:05;-0.20;99.90
29363;DHT22;16349;53.672;10.014;2023-12-04T10:29:42;-0.10;99.90
29363;DHT22;16349;53.672;10.014;2023-12-04T10:32:10;-0.10;99.90
29363;DHT22;16349;53.672;10.014;2023-12-04T10:34:38;0.00;99.90
29363;DHT22;16349;53.672;10.014;2023-12-04T10:37:07;0.00;99.90
29363;DHT22;16349;53.672;10.014;2023-12-04T10:39:45;0.00;99.90
29363;DHT22;16349;53.672;10.014;2023-12-04T10:42:25;0.00;99.90
29363;DHT22;16349;53.672;10.014;2023-12-04T10:44:55;0.00;99.90
29363;DHT22;16349;53.672;10.014;2023-12-04T10:47:24;0.00;99.90
29363;DHT22;16349;53.672;10.014;2023-12-04T10:49:52;0.00;99.90
29363;DHT22;16349;53.672;10.014;2023-12-04T10:52:21;0.10;99.90
29363;DHT22;16349;53.672;10.014;2023-12-04T10:54:51;0.10;99.90
29363;DHT22;16349;53.672;10.014;2023-12-04T10:57:22;0.10;99.90
29363;DHT22;16349;53.672;10.014;2023-12-04T11:00:00;0.10;99.90
29363;DHT22;16349;53.672;10.014;2023-12-04T11:02:33;0.20;99.90
29363;DHT22;16349;53.672;10.014;2023-12-04T11:05:07;0.20;99.90
29363;DHT22;16349;53.672;10.014;2023-12-04T11:07:40;0.20;99.90
29363;DHT22;16349;53.672;10.014;2023-12-04T11:10:11;0.20;99.90
29363;DHT22;16349;53.672;10.014;2023-12-04T11:12:40;0.30;99.90
29363;DHT22;16349;53.672;10.014;2023-12-04T11:15:15;0.30;99.90
29363;DHT22;16349;53.672;10.014;2023-12-04T11:17:43;0.40;99.90
29363;DHT22;16349;53.672;10.014;2023-12-04T11:20:15;0.40;99.90
29363;DHT22;16349;53.672;10.014;2023-12-04T11:22:45;0.40;99.90
29363;DHT22;16349;53.672;10.014;2023-12-04T11:25:14;0.40;99.90
29363;DHT22;16349;53.672;10.014;2023-12-04T11:27:43;0.30;99.90
29363;DHT22;16349;53.672;10.014;2023-12-04T11:30:11;0.30;99.90
29363;DHT22;16349;53.672;10.014;2023-12-04T11:32:44;0.30;99.90
29363;DHT22;16349;53.672;10.014;2023-12-04T11:35:13;0.30;99.90
29363;DHT22;16349;53.672;10.014;2023-12-04T11:37:41;0.20;99.90
29363;DHT22;16349;53.672;10.014;2023-12-04T11:40:11;0.30;99.90
29363;DHT22;16349;53.672;10.014;2023-12-04T11:42:41;0.20;99.90
29363;DHT22;16349;53.672;10.014;2023-12-04T11:45:08;0.20;99.90
29363;DHT22;16349;53.672;10.014;2023-12-04T11:47:51;0.20;99.90
29363;DHT22;16349;53.672;10.014;2023-12-04T11:50:19;0.20;99.90
29363;DHT22;16349;53.672;10.014;2023-12-04T11:52:46;0.20;99.90
29363;DHT22;16349;53.672;10.014;2023-12-04T11:55:16;0.30;99.90
29363;DHT22;16349;53.672;10.014;2023-12-04T11:57:45;0.30;99.90
29363;DHT22;16349;53.672;10.014;2023-12-04T12:00:19;0.30;99.90
29363;DHT22;16349;53.672;10.014;2023-12-04T12:03:00;0.40;99.90
29363;DHT22;16349;53.672;10.014;2023-12-04T12:05:31;0.40;99.90
29363;DHT22;16349;53.672;10.014;2023-12-04T12:08:03;0.40;99.90
29363;DHT22;16349;53.672;10.014;2023-12-04T12:10:31;0.30;99.90
29363;DHT22;16349;53.672;10.014;2023-12-04T12:13:01;0.30;99.90
29363;DHT22;16349;53.672;10.014;2023-12-04T12:15:29;0.20;99.90
29363;DHT22;16349;53.672;10.014;2023-12-04T12:17:56;0.20;99.90
29363;DHT22;16349;53.672;10.014;2023-12-04T12:20:24;0.20;99.90
29363;DHT22;16349;53.672;10.014;2023-12-04T12:22:55;0.20;99.90
29363;DHT22;16349;53.672;10.014;2023-12-04T12:25:24;0.20;99.90
29363;DHT22;16349;53.672;10.014;2023-12-04T12:27:52;0.20;99.90
29363;DHT22;16349;53.672;10.014;2023-12-04T12:30:21;0.30;99.90
29363;DHT22;16349;53.672;10.014;2023-12-04T12:32:50;0.20;99.90
29363;DHT22;16349;53.672;10.014;2023-12-04T12:35:18;0.20;99.90
29363;DHT22;16349;53.672;10.014;2023-12-04T12:37:46;0.20;99.90
29363;DHT22;16349;53.672;10.014;2023-12-04T12:40:14;0.20;99.90
29363;DHT22;16349;53.672;10.014;2023-12-04T12:42:42;0.20;99.90
29363;DHT22;16349;53.672;10.014;2023-12-04T12:45:11;0.20;99.90
29363;DHT22;16349;53.672;10.014;2023-12-04T12:47:42;0.20;99.90
29363;DHT22;16349;53.672;10.014;2023-12-04T12:50:10;0.20;99.90
29363;DHT22;16349;53.672;10.014;2023-12-04T12:52:39;0.20;99.90
29363;DHT22;16349;53.672;10.014;2023-12-04T12:55:06;0.20;99.90
29363;DHT22;16349;53.672;10.014;2023-12-04T12:57:35;0.30;99.90
29363;DHT22;16349;53.672;10.014;2023-12-04T13:00:02;0.30;99.90
29363;DHT22;16349;53.672;10.014;2023-12-04T13:02:35;0.30;99.90
29363;DHT22;16349;53.672;10.014;2023-12-04T13:05:04;0.30;99.90
29363;DHT22;16349;53.672;10.014;2023-12-04T13:07:34;0.30;99.90
29363;DHT22;16349;53.672;10.014;2023-12-04T13:10:01;0.30;99.90
29363;DHT22;16349;53.672;10.014;2023-12-04T13:12:31;0.30;99.90
29363;DHT22;16349;53.672;10.014;2023-12-04T13:14:59;0.30;99.90
29363;DHT22;16349;53.672;10.014;2023-12-04T13:17:27;0.30;99.90
29363;DHT22;16349;53.672;10.014;2023-12-04T13:19:58;0.20;99.90
29363;DHT22;16349;53.672;10.014;2023-12-04T13:22:30;0.30;99.90
29363;DHT22;16349;53.672;10.014;2023-12-04T13:24:59;0.20;99.90
29363;DHT22;16349;53.672;10.014;2023-12-04T13:27:27;0.30;99.90
29363;DHT22;16349;53.672;10.014;2023-12-04T13:29:54;0.30;99.90
29363;DHT22;16349;53.672;10.014;2023-12-04T13:32:21;0.30;99.90
29363;DHT22;16349;53.672;10.014;2023-12-04T13:34:48;0.30;99.90
29363;DHT22;16349;53.672;10.014;2023-12-04T13:37:15;0.30;99.90
29363;DHT22;16349;53.672;10.014;2023-12-04T13:39:43;0.30;99.90
29363;DHT22;16349;53.672;10.014;2023-12-04T13:42:14;0.30;99.90
29363;DHT22;16349;53.672;10.014;2023-12-04T13:44:59;0.30;99.90
29363;DHT22;16349;53.672;10.014;2023-12-04T13:47:26;0.30;99.90
29363;DHT22;16349;53.672;10.014;2023-12-04T13:49:53;0.20;99.90
29363;DHT22;16349;53.672;10.014;2023-12-04T13:52:21;0.30;99.90
29363;DHT22;16349;53.672;10.014;2023-12-04T13:54:50;0.20;99.90
29363;DHT22;16349;53.672;10.014;2023-12-04T13:57:19;0.30;99.90
29363;DHT22;16349;53.672;10.014;2023-12-04T13:59:48;0.30;99.90
29363;DHT22;16349;53.672;10.014;2023-12-04T14:02:14;0.20;99.90
29363;DHT22;16349;53.672;10.014;2023-12-04T14:04:41;0.30;99.90
29363;DHT22;16349;53.672;10.014;2023-12-04T14:07:08;0.30;99.90
29363;DHT22;16349;53.672;10.014;2023-12-04T14:09:36;0.30;99.90
29363;DHT22;16349;53.672;10.014;2023-12-04T14:12:05;0.20;99.90
29363;DHT22;16349;53.672;10.014;2023-12-04T14:14:32;0.20;99.90
29363;DHT22;16349;53.672;10.014;2023-12-04T14:17:00;0.20;99.90
29363;DHT22;16349;53.672;10.014;2023-12-04T14:19:29;0.20;99.90
29363;DHT22;16349;53.672;10.014;2023-12-04T14:21:56;0.20;99.90
29363;DHT22;16349;53.672;10.014;2023-12-04T14:24:23;0.20;99.90
29363;DHT22;16349;53.672;10.014;2023-12-04T14:26:52;0.10;99.90
29363;DHT22;16349;53.672;10.014;2023-12-04T14:29:21;0.10;99.90
29363;DHT22;16349;53.672;10.014;2023-12-04T14:31:48;0.10;99.90
29363;DHT22;16349;53.672;10.014;2023-12-04T14:34:15;0.10;99.90
29363;DHT22;16349;53.672;10.014;2023-12-04T14:36:42;0.10;99.90
29363;DHT22;16349;53.672;10.014;2023-12-04T14:39:09;0.10;99.90
29363;DHT22;16349;53.672;10.014;2023-12-04T14:41:37;0.00;99.90
29363;DHT22;16349;53.672;10.014;2023-12-04T14:44:04;0.00;99.90
29363;DHT22;16349;53.672;10.014;2023-12-04T14:46:33;0.00;99.90
29363;DHT22;16349;53.672;10.014;2023-12-04T14:48:59;0.00;99.90
29363;DHT22;16349;53.672;10.014;2023-12-04T14:51:26;0.00;99.90
29363;DHT22;16349;53.672;10.014;2023-12-04T14:53:53;0.00;99.90
29363;DHT22;16349;53.672;10.014;2023-12-04T14:56:36;-0.10;99.90
29363;DHT22;16349;53.672;10.014;2023-12-04T14:59:20;-0.10;99.90
29363;DHT22;16349;53.672;10.014;2023-12-04T15:02:03;-0.10;99.90
29363;DHT22;16349;53.672;10.014;2023-12-04T15:05:07;-0.10;99.90
29363;DHT22;16349;53.672;10.014;2023-12-04T15:08:05;-0.10;99.90
29363;DHT22;16349;53.672;10.014;2023-12-04T15:10:57;-0.10;99.90
29363;DHT22;16349;53.672;10.014;2023-12-04T15:13:50;-0.20;99.90
29363;DHT22;16349;53.672;10.014;2023-12-04T15:16:21;-0.20;99.90
29363;DHT22;16349;53.672;10.014;2023-12-04T15:19:00;-0.20;99.90
29363;DHT22;16349;53.672;10.014;2023-12-04T15:21:53;-0.20;99.90
29363;DHT22;16349;53.672;10.014;2023-12-04T15:24:21;-0.20;99.90
29363;DHT22;16349;53.672;10.014;2023-12-04T15:26:47;-0.20;99.90
29363;DHT22;16349;53.672;10.014;2023-12-04T15:29:14;-0.20;99.90